Time;durP1;ratioP1;P1;durP2;ratioP2;P2;SDS_P1;SDS_P2;PMS_P1;PMS_P2;Temp;Humidity;BMP_temperature;BMP_pressure;BME280_temperature;BME280_humidity;BME280_pressure;Samples;Min_cycle;Max_cycle;Signal;HPM_P1;HPM_P2
2022/04/19 00:00:00;;;;;;;;;44.00;34.33;;;;;;;;5097427;27;47147;-73
2022/04/19 00:02:25;;;;;;;;;46.67;33.33;;;;;;;;5097185;27;45370;-74
2022/04/19 00:04:51;;;;;;;;;38.33;32.33;;;;;;;;5097720;27;45252;-73
2022/04/19 00:07:16;;;;;;;;;34.33;30.67;;;;;;;;5097832;27;45321;-73
2022/04/19 00:09:41;;;;;;;;;34.00;29.00;;;;;;;;5097340;27;46112;-73
2022/04/19 00:12:07;;;;;;;;;37.67;32.33;;;;;;;;5097566;27;45344;-74
2022/04/19 00:14:34;;;;;;;;;36.00;29.67;;;;;;;;5097474;27;45355;-73
2022/04/19 00:16:59;;;;;;;;;36.00;31.33;;;;;;;;5097393;27;45545;-73
2022/04/19 00:19:25;;;;;;;;;39.00;31.00;;;;;;;;5096982;27;45915;-74
2022/04/19 00:21:51;;;;;;;;;36.33;29.33;;;;;;;;5097213;27;45349;-73
2022/04/19 00:24:16;;;;;;;;;37.33;32.00;;;;;;;;5097423;27;45293;-73
2022/04/19 00:26:41;;;;;;;;;39.33;30.67;;;;;;;;5097488;27;45305;-73
2022/04/19 00:29:06;;;;;;;;;32.00;28.33;;;;;;;;5097003;27;46591;-74
2022/04/19 00:31:32;;;;;;;;;38.33;30.67;;;;;;;;5096966;27;45408;-73
2022/04/19 00:33:58;;;;;;;;;32.67;26.67;;;;;;;;5097167;27;45278;-74
2022/04/19 00:36:23;;;;;;;;;34.67;30.33;;;;;;;;5099851;27;45271;-73
2022/04/19 00:38:48;;;;;;;;;35.67;30.33;;;;;;;;5100212;27;46928;-71
2022/04/19 00:41:13;;;;;;;;;38.67;32.00;;;;;;;;5100528;27;45379;-73
2022/04/19 00:43:40;;;;;;;;;40.33;32.67;;;;;;;;5100623;27;45420;-73
2022/04/19 00:46:05;;;;;;;;;38.33;31.33;;;;;;;;5100485;27;45472;-74
2022/04/19 00:48:30;;;;;;;;;39.33;30.33;;;;;;;;5100512;27;45298;-73
2022/04/19 00:50:56;;;;;;;;;40.00;32.33;;;;;;;;5100443;27;45340;-73
2022/04/19 00:53:22;;;;;;;;;34.33;30.00;;;;;;;;5100631;27;45229;-73
2022/04/19 00:55:47;;;;;;;;;31.00;29.67;;;;;;;;5100231;27;45534;-73
2022/04/19 00:58:13;;;;;;;;;33.00;30.00;;;;;;;;5081577;27;47696;-74
2022/04/19 01:00:38;;;;;;;;;37.33;33.00;;;;;;;;5100477;27;45245;-74
2022/04/19 01:03:03;;;;;;;;;42.33;33.33;;;;;;;;5099987;27;45450;-74
2022/04/19 01:05:29;;;;;;;;;37.67;31.00;;;;;;;;5100777;27;45308;-73
2022/04/19 01:07:54;;;;;;;;;30.00;29.67;;;;;;;;5100592;27;45461;-73
2022/04/19 01:10:19;;;;;;;;;42.67;33.00;;;;;;;;5100032;27;45334;-73
2022/04/19 01:15:28;;;;;;;;;38.00;30.33;;;;;;;;5100117;27;45341;-73
2022/04/19 01:17:54;;;;;;;;;37.00;33.00;;;;;;;;5099575;27;47087;-73
2022/04/19 01:20:19;;;;;;;;;34.33;30.33;;;;;;;;5100018;27;45248;-73
2022/04/19 01:22:48;;;;;;;;;39.67;32.67;;;;;;;;5099876;27;46027;-73
2022/04/19 01:25:14;;;;;;;;;47.00;34.33;;;;;;;;5100006;27;45488;-73
2022/04/19 01:27:39;;;;;;;;;54.67;42.00;;;;;;;;5099567;27;46632;-73
2022/04/19 01:30:06;;;;;;;;;41.67;29.67;;;;;;;;5099720;27;45513;-74
2022/04/19 01:32:31;;;;;;;;;45.67;34.00;;;;;;;;5099803;27;45533;-73
2022/04/19 01:35:06;;;;;;;;;38.67;33.00;;;;;;;;5099812;27;45492;-73
2022/04/19 01:37:35;;;;;;;;;36.33;31.00;;;;;;;;5099673;27;46535;-73
2022/04/19 01:40:18;;;;;;;;;39.00;34.00;;;;;;;;5099536;27;45345;-73
2022/04/19 01:42:46;;;;;;;;;39.00;31.00;;;;;;;;5099584;27;45379;-73
2022/04/19 01:45:32;;;;;;;;;37.00;34.00;;;;;;;;5099768;27;45402;-73
2022/04/19 01:47:58;;;;;;;;;43.33;34.00;;;;;;;;5079247;27;47472;-74
2022/04/19 01:50:26;;;;;;;;;41.33;34.00;;;;;;;;5099439;27;45507;-74
2022/04/19 01:52:52;;;;;;;;;44.33;34.00;;;;;;;;5081203;27;45329;-73
2022/04/19 01:55:18;;;;;;;;;38.67;34.00;;;;;;;;5099014;27;45569;-73
2022/04/19 01:57:45;;;;;;;;;43.33;34.00;;;;;;;;5099251;27;46468;-73
2022/04/19 02:00:11;;;;;;;;;36.00;30.00;;;;;;;;5099316;27;45299;-73
2022/04/19 02:02:37;;;;;;;;;43.67;33.67;;;;;;;;5099220;27;45384;-73
2022/04/19 02:05:03;;;;;;;;;41.00;34.33;;;;;;;;5099339;27;45505;-73
2022/04/19 02:07:28;;;;;;;;;45.67;34.00;;;;;;;;5098988;27;46713;-73
2022/04/19 02:09:53;;;;;;;;;43.00;36.00;;;;;;;;5099246;27;45241;-74
2022/04/19 02:12:19;;;;;;;;;47.00;37.00;;;;;;;;5099113;27;45227;-73
2022/04/19 02:14:44;;;;;;;;;44.33;35.33;;;;;;;;5099424;27;45244;-73
2022/04/19 02:17:09;;;;;;;;;41.33;34.67;;;;;;;;5098818;27;46464;-73
2022/04/19 02:19:35;;;;;;;;;53.33;40.00;;;;;;;;5098869;27;45336;-73
2022/04/19 02:22:00;;;;;;;;;44.33;36.00;;;;;;;;5099092;27;45397;-73
2022/04/19 02:24:25;;;;;;;;;49.67;39.67;;;;;;;;5099227;27;45430;-73
2022/04/19 02:26:50;;;;;;;;;51.67;41.00;;;;;;;;5099055;27;46542;-74
2022/04/19 02:29:16;;;;;;;;;48.33;39.33;;;;;;;;5098777;27;45391;-73
2022/04/19 02:31:41;;;;;;;;;49.00;38.00;;;;;;;;5098822;27;45361;-73
2022/04/19 02:34:06;;;;;;;;;38.33;29.33;;;;;;;;5099282;27;45417;-73
2022/04/19 02:36:32;;;;;;;;;47.00;38.00;;;;;;;;5098457;27;46539;-73
2022/04/19 02:38:59;;;;;;;;;52.67;41.67;;;;;;;;5098673;27;45348;-73
2022/04/19 02:41:24;;;;;;;;;53.00;39.67;;;;;;;;5080285;27;45455;-73
2022/04/19 02:43:49;;;;;;;;;49.67;39.33;;;;;;;;5098630;27;45249;-73
2022/04/19 02:46:14;;;;;;;;;49.00;39.33;;;;;;;;5098662;27;45222;-73
2022/04/19 02:48:40;;;;;;;;;45.67;39.00;;;;;;;;5098403;27;45206;-73
2022/04/19 02:51:05;;;;;;;;;47.33;35.67;;;;;;;;5098874;27;45381;-73
2022/04/19 02:53:32;;;;;;;;;51.67;40.00;;;;;;;;5098807;27;45625;-73
2022/04/19 02:55:59;;;;;;;;;48.00;38.67;;;;;;;;5098202;27;45386;-73
2022/04/19 02:58:25;;;;;;;;;52.33;37.33;;;;;;;;5098096;27;45241;-74
2022/04/19 03:00:50;;;;;;;;;47.33;38.00;;;;;;;;5098526;27;45438;-74
2022/04/19 03:03:15;;;;;;;;;45.33;36.00;;;;;;;;5098358;27;45466;-73
2022/04/19 03:05:41;;;;;;;;;46.67;37.33;;;;;;;;5098092;27;45627;-73
2022/04/19 03:08:07;;;;;;;;;50.33;37.00;;;;;;;;5098118;27;45524;-74
2022/04/19 03:10:32;;;;;;;;;41.67;34.33;;;;;;;;5098512;27;45312;-73
2022/04/19 03:12:58;;;;;;;;;42.33;36.67;;;;;;;;5098005;27;45350;-73
2022/04/19 03:15:23;;;;;;;;;50.33;37.00;;;;;;;;5097782;27;46308;-73
2022/04/19 03:17:48;;;;;;;;;44.67;34.67;;;;;;;;5097808;27;45291;-73
2022/04/19 03:20:13;;;;;;;;;47.67;37.67;;;;;;;;5098318;27;45295;-73
2022/04/19 03:28:09;;;;;;;;;48.00;37.00;;;;;;;;5097925;27;45395;-74
2022/04/19 03:30:35;;;;;;;;;40.33;34.67;;;;;;;;5093919;27;45324;-73
2022/04/19 03:33:00;;;;;;;;;43.67;34.33;;;;;;;;5061812;28;45623;-74
2022/04/19 03:35:25;;;;;;;;;43.33;34.33;;;;;;;;5065637;28;46457;-73
2022/04/19 03:37:51;;;;;;;;;42.67;32.67;;;;;;;;5038931;28;45347;-73
2022/04/19 03:40:16;;;;;;;;;44.00;35.33;;;;;;;;5057260;28;45236;-73
2022/04/19 03:42:42;;;;;;;;;37.00;34.00;;;;;;;;5057158;28;45440;-73
2022/04/19 03:45:08;;;;;;;;;39.67;31.67;;;;;;;;5057062;28;47573;-73
2022/04/19 03:47:34;;;;;;;;;43.67;35.00;;;;;;;;5056879;28;45261;-73
2022/04/19 03:50:00;;;;;;;;;35.00;31.33;;;;;;;;5056997;28;45345;-73
2022/04/19 03:52:25;;;;;;;;;36.33;31.33;;;;;;;;5056957;28;45313;-73
2022/04/19 03:54:50;;;;;;;;;39.33;32.00;;;;;;;;5056780;28;45499;-73
2022/04/19 03:57:17;;;;;;;;;43.33;34.00;;;;;;;;5056979;28;45432;-73
2022/04/19 03:59:43;;;;;;;;;38.33;33.67;;;;;;;;5057066;28;45324;-73
2022/04/19 04:02:08;;;;;;;;;37.33;34.00;;;;;;;;5056530;28;45417;-73
2022/04/19 04:04:35;;;;;;;;;38.67;31.33;;;;;;;;5056851;28;45675;-73
2022/04/19 04:07:01;;;;;;;;;44.67;33.33;;;;;;;;5072584;28;45512;-73
2022/04/19 04:09:32;;;;;;;;;43.00;35.00;;;;;;;;5057045;28;45562;-73
2022/04/19 04:11:58;;;;;;;;;33.33;30.00;;;;;;;;5060321;28;45329;-73
2022/04/19 04:14:23;;;;;;;;;41.33;33.00;;;;;;;;5059900;28;46306;-73
2022/04/19 04:16:48;;;;;;;;;34.00;30.67;;;;;;;;5060258;28;45333;-73
2022/04/19 04:19:13;;;;;;;;;34.33;32.00;;;;;;;;5060039;28;45536;-73
2022/04/19 04:21:38;;;;;;;;;38.67;32.00;;;;;;;;5060469;28;45360;-73
2022/04/19 04:24:04;;;;;;;;;33.67;28.67;;;;;;;;5060241;28;45443;-73
2022/04/19 04:26:29;;;;;;;;;30.00;27.67;;;;;;;;5060151;28;45333;-73
2022/04/19 04:28:54;;;;;;;;;45.67;33.67;;;;;;;;5060205;28;45301;-73
2022/04/19 04:31:20;;;;;;;;;38.00;32.67;;;;;;;;5060209;28;45230;-73
2022/04/19 04:33:45;;;;;;;;;39.33;32.00;;;;;;;;5059901;28;46643;-73
2022/04/19 04:36:10;;;;;;;;;31.67;27.67;;;;;;;;5059241;28;45252;-73
2022/04/19 04:38:35;;;;;;;;;38.67;29.00;;;;;;;;5059894;28;45447;-73
2022/04/19 04:41:01;;;;;;;;;37.33;31.33;;;;;;;;5060192;28;45257;-73
2022/04/19 04:43:26;;;;;;;;;40.00;32.00;;;;;;;;5059432;28;45510;-73
2022/04/19 04:49:35;;;;;;;;;39.67;32.00;;;;;;;;5059977;28;45163;-73
2022/04/19 04:51:20;;;;;;;;;33.33;30.00;;;;;;;;5060018;28;45243;-73
2022/04/19 04:53:45;;;;;;;;;47.67;33.67;;;;;;;;5059314;28;45278;-73
2022/04/19 04:56:10;;;;;;;;;38.00;28.00;;;;;;;;5059492;28;45295;-73
2022/04/19 04:58:36;;;;;;;;;27.33;25.00;;;;;;;;5059534;28;45215;-72
2022/04/19 05:01:01;;;;;;;;;36.33;28.33;;;;;;;;5059566;28;45398;-72
2022/04/19 05:03:26;;;;;;;;;36.33;31.33;;;;;;;;5059440;28;45793;-72
2022/04/19 05:05:51;;;;;;;;;40.67;31.00;;;;;;;;5059402;28;45435;-72
2022/04/19 05:08:18;;;;;;;;;32.33;28.00;;;;;;;;5059382;28;45297;-72
2022/04/19 05:10:43;;;;;;;;;38.33;29.00;;;;;;;;5059709;28;45426;-72
2022/04/19 05:13:08;;;;;;;;;37.67;29.33;;;;;;;;5059203;28;45298;-72
2022/04/19 05:15:34;;;;;;;;;35.33;28.33;;;;;;;;5059438;28;45441;-72
2022/04/19 05:17:59;;;;;;;;;30.67;27.00;;;;;;;;5059056;28;45448;-73
2022/04/19 05:20:24;;;;;;;;;36.67;28.00;;;;;;;;5059748;28;45349;-73
2022/04/19 05:22:49;;;;;;;;;37.67;31.67;;;;;;;;5057275;28;46647;-72
2022/04/19 05:25:14;;;;;;;;;30.67;28.33;;;;;;;;5059199;28;45341;-72
2022/04/19 05:27:40;;;;;;;;;33.00;29.00;;;;;;;;5059021;28;45345;-72
2022/04/19 05:30:05;;;;;;;;;35.00;31.33;;;;;;;;5059340;28;45476;-72
2022/04/19 05:32:31;;;;;;;;;29.00;25.33;;;;;;;;5059162;28;46086;-72
2022/04/19 05:34:56;;;;;;;;;34.00;27.33;;;;;;;;5058736;28;45309;-72
2022/04/19 05:37:21;;;;;;;;;48.00;36.00;;;;;;;;5059064;28;45350;-72
2022/04/19 05:39:46;;;;;;;;;42.00;31.00;;;;;;;;5059255;28;45385;-72
2022/04/19 05:42:12;;;;;;;;;36.00;31.00;;;;;;;;5058807;28;45329;-72
2022/04/19 05:44:38;;;;;;;;;73.00;55.50;;;;;;;;5058690;28;45317;-72
2022/04/19 05:47:04;;;;;;;;;37.33;33.00;;;;;;;;5058622;28;45339;-72
2022/04/19 05:49:29;;;;;;;;;30.33;24.33;;;;;;;;5057862;28;45325;-72
2022/04/19 05:51:54;;;;;;;;;31.33;28.67;;;;;;;;5058803;28;45574;-73
2022/04/19 05:54:20;;;;;;;;;37.00;29.50;;;;;;;;5058593;28;45628;-72
2022/04/19 05:56:45;;;;;;;;;36.67;31.00;;;;;;;;5058556;28;45477;-72
2022/04/19 05:59:10;;;;;;;;;37.33;32.33;;;;;;;;5058805;28;45238;-73
2022/04/19 06:07:03;;;;;;;;;30.00;26.33;;;;;;;;5058253;28;45289;-70
2022/04/19 06:09:28;;;;;;;;;31.00;26.67;;;;;;;;5058590;28;45352;-71
2022/04/19 06:11:54;;;;;;;;;35.33;31.67;;;;;;;;5058274;28;45367;-70
2022/04/19 06:14:19;;;;;;;;;32.67;28.67;;;;;;;;5058102;28;45338;-71
2022/04/19 06:16:44;;;;;;;;;37.33;31.00;;;;;;;;5058372;28;45322;-71
2022/04/19 06:19:09;;;;;;;;;36.67;31.33;;;;;;;;5058688;28;45443;-71
2022/04/19 06:21:34;;;;;;;;;39.67;31.00;;;;;;;;5057784;28;45412;-70
2022/04/19 06:24:03;;;;;;;;;28.00;26.67;;;;;;;;5058334;28;45499;-71
2022/04/19 06:26:28;;;;;;;;;51.67;37.67;;;;;;;;5058513;28;45264;-71
2022/04/19 06:28:54;;;;;;;;;33.00;28.00;;;;;;;;5058058;28;45380;-70
2022/04/19 06:31:19;;;;;;;;;36.67;31.33;;;;;;;;5058293;28;45606;-71
2022/04/19 06:33:44;;;;;;;;;33.33;28.67;;;;;;;;5058220;28;45295;-71
2022/04/19 06:36:10;;;;;;;;;40.67;31.00;;;;;;;;5076624;28;45399;-71
2022/04/19 06:38:35;;;;;;;;;30.00;29.00;;;;;;;;5078411;28;45414;-71
2022/04/19 06:41:00;;;;;;;;;31.00;28.33;;;;;;;;5078089;28;46485;-70
2022/04/19 06:43:26;;;;;;;;;31.33;27.33;;;;;;;;5077873;28;45300;-70
2022/04/19 06:45:51;;;;;;;;;34.33;31.00;;;;;;;;5078351;28;45740;-70
2022/04/19 06:48:16;;;;;;;;;32.00;29.33;;;;;;;;5078325;28;45261;-70
2022/04/19 06:50:42;;;;;;;;;39.00;31.67;;;;;;;;5078011;28;46473;-73
2022/04/19 06:53:08;;;;;;;;;33.00;30.00;;;;;;;;5077565;28;45411;-70
2022/04/19 06:55:34;;;;;;;;;34.33;30.00;;;;;;;;5085195;27;45284;-70
2022/04/19 06:57:59;;;;;;;;;29.00;28.33;;;;;;;;5098395;27;45376;-70
2022/04/19 07:00:24;;;;;;;;;28.33;25.00;;;;;;;;5097914;27;46283;-70
2022/04/19 07:02:50;;;;;;;;;52.00;39.33;;;;;;;;5097980;27;45557;-71
2022/04/19 07:05:15;;;;;;;;;36.33;28.00;;;;;;;;5097768;27;45884;-71
2022/04/19 07:07:42;;;;;;;;;41.67;34.33;;;;;;;;5098337;27;45408;-71
2022/04/19 07:10:09;;;;;;;;;39.67;30.33;;;;;;;;5098040;27;46734;-71
2022/04/19 07:12:35;;;;;;;;;34.33;28.33;;;;;;;;5098213;27;45749;-71
2022/04/19 07:15:01;;;;;;;;;33.67;29.67;;;;;;;;5098049;27;45386;-71
2022/04/19 07:17:26;;;;;;;;;33.33;28.00;;;;;;;;5098179;27;45322;-70
2022/04/19 07:28:09;;;;;;;;;28.33;26.00;;;;;;;;5098065;27;45323;-70
2022/04/19 07:30:34;;;;;;;;;35.33;30.00;;;;;;;;5097562;27;46874;-70
2022/04/19 07:33:00;;;;;;;;;39.33;31.00;;;;;;;;5098055;27;45310;-71
2022/04/19 07:35:25;;;;;;;;;34.33;28.67;;;;;;;;5097711;27;45428;-70
2022/04/19 07:37:51;;;;;;;;;36.00;29.00;;;;;;;;5097818;27;45575;-70
2022/04/19 07:40:16;;;;;;;;;37.00;30.33;;;;;;;;5097671;27;47256;-71
2022/04/19 07:42:42;;;;;;;;;34.00;31.00;;;;;;;;5097391;27;45368;-70
2022/04/19 07:45:07;;;;;;;;;40.33;32.00;;;;;;;;5098322;27;45291;-71
2022/04/19 07:47:32;;;;;;;;;34.00;29.33;;;;;;;;5101791;27;45335;-71
2022/04/19 07:49:58;;;;;;;;;37.00;30.67;;;;;;;;5101045;27;45261;-71
2022/04/19 07:52:23;;;;;;;;;34.67;30.00;;;;;;;;5101168;27;45257;-71
2022/04/19 07:54:48;;;;;;;;;37.33;30.67;;;;;;;;5101212;27;45281;-68
2022/04/19 07:57:17;;;;;;;;;43.67;32.67;;;;;;;;5101428;27;45420;-68
2022/04/19 07:59:42;;;;;;;;;38.33;32.33;;;;;;;;5101017;27;45675;-71
2022/04/19 08:02:07;;;;;;;;;37.00;33.67;;;;;;;;5101008;27;45359;-71
2022/04/19 08:04:33;;;;;;;;;36.33;28.33;;;;;;;;5101037;27;45577;-70
2022/04/19 08:06:59;;;;;;;;;40.00;34.00;;;;;;;;5101228;27;45288;-71
2022/04/19 08:09:24;;;;;;;;;47.00;38.00;;;;;;;;5100699;27;47224;-71
2022/04/19 08:11:51;;;;;;;;;42.67;33.67;;;;;;;;5100615;27;45321;-70
2022/04/19 08:14:16;;;;;;;;;39.00;34.33;;;;;;;;5100992;27;45320;-70
2022/04/19 08:16:42;;;;;;;;;43.00;36.00;;;;;;;;5101168;27;45233;-70
2022/04/19 08:19:07;;;;;;;;;42.67;36.00;;;;;;;;5100578;27;46164;-71
2022/04/19 08:21:32;;;;;;;;;39.33;32.00;;;;;;;;5100982;27;45222;-71
2022/04/19 08:23:57;;;;;;;;;36.67;32.67;;;;;;;;5100930;27;45318;-71
2022/04/19 08:26:22;;;;;;;;;41.67;33.00;;;;;;;;5100772;27;45221;-71
2022/04/19 08:28:48;;;;;;;;;37.33;32.67;;;;;;;;5100501;27;45455;-71
2022/04/19 08:31:13;;;;;;;;;44.67;35.67;;;;;;;;5082182;27;45200;-71
2022/04/19 08:33:38;;;;;;;;;40.33;35.00;;;;;;;;5100567;27;45340;-70
2022/04/19 08:36:04;;;;;;;;;38.33;31.67;;;;;;;;5100889;27;45769;-71
2022/04/19 08:38:29;;;;;;;;;34.33;33.67;;;;;;;;5100287;27;45475;-71
2022/04/19 08:40:54;;;;;;;;;45.67;37.00;;;;;;;;5100376;27;45309;-70
2022/04/19 08:43:20;;;;;;;;;41.33;33.00;;;;;;;;5100540;27;45182;-71
2022/04/19 08:45:45;;;;;;;;;37.33;35.33;;;;;;;;5100775;27;45289;-71
2022/04/19 08:48:12;;;;;;;;;44.33;36.33;;;;;;;;5100086;27;45638;-68
2022/04/19 08:50:38;;;;;;;;;43.00;33.00;;;;;;;;5100167;27;45314;-69
2022/04/19 08:58:51;;;;;;;;;44.67;37.00;;;;;;;;5057137;28;45798;-71
2022/04/19 09:01:16;;;;;;;;;35.67;32.00;;;;;;;;5056522;28;45403;-72
2022/04/19 09:03:41;;;;;;;;;48.33;36.67;;;;;;;;5057582;28;45339;-71
2022/04/19 09:06:06;;;;;;;;;43.67;34.33;;;;;;;;5057109;28;45393;-71
2022/04/19 09:08:32;;;;;;;;;42.33;33.00;;;;;;;;5057023;28;46222;-71
2022/04/19 09:11:08;;;;;;;;;38.67;32.00;;;;;;;;5057179;28;45428;-70
2022/04/19 09:13:33;;;;;;;;;42.67;33.33;;;;;;;;5057270;28;45384;-71
2022/04/19 09:16:02;;;;;;;;;43.67;36.33;;;;;;;;5057067;28;45466;-71
2022/04/19 09:18:32;;;;;;;;;41.00;35.33;;;;;;;;5057070;28;46697;-71
2022/04/19 09:20:58;;;;;;;;;43.00;35.33;;;;;;;;5056576;28;45467;-71
2022/04/19 09:23:26;;;;;;;;;40.33;32.33;;;;;;;;5054018;28;45559;-71
2022/04/19 09:26:01;;;;;;;;;43.33;34.67;;;;;;;;5058900;28;45352;-71
2022/04/19 09:28:28;;;;;;;;;42.67;36.67;;;;;;;;5078463;28;45484;-74
2022/04/19 09:30:57;;;;;;;;;46.33;38.67;;;;;;;;5078748;28;45329;-79
2022/04/19 09:33:23;;;;;;;;;37.67;35.00;;;;;;;;5079337;28;45340;-77
2022/04/19 09:35:54;;;;;;;;;37.00;32.33;;;;;;;;5079087;28;45324;-76
2022/04/19 09:38:38;;;;;;;;;39.67;34.67;;;;;;;;5078519;28;45253;-74
2022/04/19 09:41:04;;;;;;;;;42.67;35.00;;;;;;;;5078856;28;45436;-79
2022/04/19 09:43:29;;;;;;;;;51.00;36.67;;;;;;;;5078813;28;45376;-72
2022/04/19 09:45:56;;;;;;;;;42.67;34.67;;;;;;;;5079029;28;45416;-70
2022/04/19 09:48:27;;;;;;;;;51.00;36.67;;;;;;;;5078917;28;46751;-72
2022/04/19 09:50:57;;;;;;;;;46.00;34.67;;;;;;;;5078463;28;45426;-72
2022/04/19 09:53:24;;;;;;;;;49.00;39.00;;;;;;;;5058442;28;45399;-72
2022/04/19 09:55:50;;;;;;;;;46.00;34.00;;;;;;;;5058627;28;45515;-72
2022/04/19 09:58:16;;;;;;;;;47.33;38.33;;;;;;;;5058382;28;46976;-72
2022/04/19 10:00:45;;;;;;;;;52.00;40.33;;;;;;;;5058484;28;45353;-72
2022/04/19 10:08:10;;;;;;;;;43.67;36.00;;;;;;;;5058252;28;45413;-70
2022/04/19 10:08:57;;;;;;;;;46.33;38.33;;;;;;;;5057256;28;46022;-70
2022/04/19 10:11:24;;;;;;;;;44.00;38.33;;;;;;;;5058271;28;45353;-70
2022/04/19 10:13:50;;;;;;;;;55.33;40.67;;;;;;;;5058408;28;45497;-71
2022/04/19 10:16:16;;;;;;;;;52.33;39.33;;;;;;;;5058530;28;45478;-70
2022/04/19 10:18:46;;;;;;;;;39.00;35.67;;;;;;;;5058228;28;46243;-71
2022/04/19 10:21:16;;;;;;;;;47.67;36.67;;;;;;;;5058053;28;45361;-71
2022/04/19 10:23:42;;;;;;;;;42.00;35.33;;;;;;;;5058266;28;45463;-71
2022/04/19 10:26:21;;;;;;;;;44.00;37.67;;;;;;;;5058187;28;45483;-72
2022/04/19 10:28:47;;;;;;;;;42.67;35.33;;;;;;;;5057972;28;46311;-71
2022/04/19 10:31:13;;;;;;;;;52.50;41.50;;;;;;;;5057607;28;45333;-71
2022/04/19 10:33:39;;;;;;;;;39.00;34.33;;;;;;;;5057893;28;45779;-71
2022/04/19 10:36:14;;;;;;;;;45.00;38.00;;;;;;;;5057984;28;45406;-71
2022/04/19 10:38:39;;;;;;;;;46.25;37.50;;;;;;;;5057986;28;46151;-71
2022/04/19 10:41:05;;;;;;;;;42.25;35.00;;;;;;;;5057618;28;45292;-70
2022/04/19 10:43:30;;;;;;;;;33.67;30.67;;;;;;;;5058220;28;45288;-70
2022/04/19 10:46:15;;;;;;;;;39.67;33.67;;;;;;;;5057993;28;45254;-71
2022/04/19 10:49:00;;;;;;;;;44.00;35.00;;;;;;;;5057802;28;45345;-71
2022/04/19 10:51:28;;;;;;;;;43.25;33.75;;;;;;;;5057479;28;45373;-70
2022/04/19 10:53:54;;;;;;;;;43.33;35.67;;;;;;;;5058022;28;45325;-72
2022/04/19 10:56:19;;;;;;;;;40.50;35.00;;;;;;;;5057948;28;45280;-72
2022/04/19 10:58:44;;;;;;;;;41.50;35.00;;;;;;;;5057623;28;45558;-72
2022/04/19 11:01:32;;;;;;;;;43.67;35.67;;;;;;;;5057425;28;45321;-73
2022/04/19 11:03:57;;;;;;;;;42.33;34.33;;;;;;;;5057840;28;45235;-70
2022/04/19 11:06:31;;;;;;;;;48.67;38.00;;;;;;;;5057456;28;45186;-70
2022/04/19 11:09:15;;;;;;;;;48.25;35.75;;;;;;;;5057363;28;47029;-71
2022/04/19 11:11:47;;;;;;;;;44.00;35.33;;;;;;;;5057200;28;45397;-70
2022/04/19 11:14:31;;;;;;;;;48.00;36.67;;;;;;;;5057763;28;45326;-70
2022/04/19 11:17:15;;;;;;;;;43.00;35.67;;;;;;;;5057747;28;45378;-71
2022/04/19 11:19:50;;;;;;;;;44.33;35.33;;;;;;;;5057134;28;46507;-71
2022/04/19 11:22:24;;;;;;;;;46.67;38.00;;;;;;;;5057250;28;45455;-72
2022/04/19 11:25:03;;;;;;;;;39.67;33.67;;;;;;;;5057132;28;45401;-71
2022/04/19 11:27:47;;;;;;;;;43.33;37.33;;;;;;;;5057375;28;45313;-70
2022/04/19 11:30:15;;;;;;;;;46.33;33.33;;;;;;;;5057119;28;46105;-70
2022/04/19 11:32:40;;;;;;;;;37.67;32.33;;;;;;;;5057214;28;45405;-71
2022/04/19 11:35:06;;;;;;;;;48.33;40.00;;;;;;;;5057168;28;45384;-71
2022/04/19 11:37:32;;;;;;;;;43.67;34.67;;;;;;;;5057511;28;45364;-70
2022/04/19 11:48:26;;;;;;;;;42.33;35.67;;;;;;;;5057166;28;45563;-72
2022/04/19 11:50:52;;;;;;;;;36.00;32.67;;;;;;;;5056246;28;45388;-71
2022/04/19 11:53:18;;;;;;;;;37.00;32.67;;;;;;;;5056954;28;45440;-70
2022/04/19 11:55:50;;;;;;;;;47.00;37.00;;;;;;;;5056811;28;45599;-71
2022/04/19 11:58:16;;;;;;;;;33.67;30.33;;;;;;;;5057216;28;45187;-70
2022/04/19 12:00:41;;;;;;;;;23.67;22.33;;;;;;;;5056386;28;46488;-69
2022/04/19 12:03:23;;;;;;;;;32.67;28.33;;;;;;;;5056734;28;45377;-71
2022/04/19 12:05:48;;;;;;;;;28.67;26.00;;;;;;;;5056753;28;45273;-72
2022/04/19 12:08:28;;;;;;;;;34.67;29.00;;;;;;;;5057085;28;45207;-71
2022/04/19 12:10:54;;;;;;;;;39.67;31.00;;;;;;;;5056518;28;47348;-69
2022/04/19 12:13:19;;;;;;;;;32.00;29.33;;;;;;;;5038404;28;45431;-69
2022/04/19 12:15:44;;;;;;;;;22.67;21.67;;;;;;;;5057234;28;45246;-70
2022/04/19 12:18:10;;;;;;;;;23.33;21.67;;;;;;;;5056727;28;45334;-71
2022/04/19 12:20:45;;;;;;;;;26.33;23.00;;;;;;;;5056488;28;47374;-69
2022/04/19 12:23:20;;;;;;;;;31.67;27.67;;;;;;;;5056313;28;45436;-69
2022/04/19 12:25:57;;;;;;;;;26.67;23.67;;;;;;;;5056706;28;46023;-71
2022/04/19 12:28:23;;;;;;;;;33.67;27.33;;;;;;;;5056712;28;46001;-71
2022/04/19 12:30:48;;;;;;;;;29.33;26.00;;;;;;;;5056510;28;46115;-69
2022/04/19 12:33:14;;;;;;;;;35.00;30.00;;;;;;;;5059655;28;45195;-69
2022/04/19 12:35:40;;;;;;;;;26.33;22.00;;;;;;;;5076131;27;45486;-68
2022/04/19 12:38:17;;;;;;;;;27.00;23.00;;;;;;;;5080159;28;45629;-74
2022/04/19 12:40:46;;;;;;;;;34.33;31.67;;;;;;;;5079754;28;45629;-66
2022/04/19 12:43:14;;;;;;;;;32.00;28.67;;;;;;;;5079583;28;45559;-64
2022/04/19 12:45:40;;;;;;;;;31.00;27.33;;;;;;;;5080008;28;45302;-73
2022/04/19 12:48:07;;;;;;;;;34.33;31.67;;;;;;;;5080207;28;45367;-72
2022/04/19 12:50:33;;;;;;;;;35.00;31.00;;;;;;;;5080415;28;45917;-72
2022/04/19 12:52:58;;;;;;;;;35.33;32.67;;;;;;;;5094182;27;45374;-70
2022/04/19 12:55:31;;;;;;;;;33.67;31.33;;;;;;;;5100025;27;45381;-70
2022/04/19 12:58:08;;;;;;;;;28.33;28.00;;;;;;;;5100526;27;45180;-70
2022/04/19 13:00:35;;;;;;;;;30.67;28.33;;;;;;;;5099882;27;47396;-70
2022/04/19 13:03:00;;;;;;;;;36.00;30.33;;;;;;;;5099915;27;45420;-71
2022/04/19 13:12:16;;;;;;;;;30.33;26.00;;;;;;;;5100437;27;45317;-71
2022/04/19 13:13:38;;;;;;;;;32.00;27.67;;;;;;;;5100049;27;45375;-70
2022/04/19 13:16:04;;;;;;;;;29.67;25.33;;;;;;;;5100003;27;45346;-73
2022/04/19 13:18:29;;;;;;;;;34.67;31.33;;;;;;;;5100475;27;45446;-72
2022/04/19 13:20:54;;;;;;;;;32.33;26.67;;;;;;;;5099867;27;45644;-71
2022/04/19 13:23:19;;;;;;;;;27.67;26.00;;;;;;;;5099824;27;45426;-69
2022/04/19 13:25:45;;;;;;;;;32.33;28.67;;;;;;;;5100098;27;45430;-70
2022/04/19 13:28:10;;;;;;;;;29.33;27.67;;;;;;;;5100205;27;45386;-69
2022/04/19 13:30:38;;;;;;;;;33.67;29.67;;;;;;;;5081347;27;45800;-69
2022/04/19 13:33:04;;;;;;;;;30.33;28.00;;;;;;;;5099640;27;45328;-71
2022/04/19 13:35:30;;;;;;;;;31.00;29.00;;;;;;;;5099731;27;45319;-72
2022/04/19 13:40:39;;;;;;;;;35.67;26.67;;;;;;;;5099529;27;45306;-73
2022/04/19 13:43:04;;;;;;;;;38.33;33.33;;;;;;;;5098154;27;45212;-73
2022/04/19 13:45:31;;;;;;;;;26.00;23.67;;;;;;;;5100026;27;45379;-73
2022/04/19 13:47:57;;;;;;;;;18.67;17.00;;;;;;;;5099691;27;45374;-72
2022/04/19 13:50:23;;;;;;;;;20.33;18.67;;;;;;;;5099538;27;46414;-72
2022/04/19 13:52:48;;;;;;;;;33.00;24.67;;;;;;;;5099168;27;45355;-71
2022/04/19 13:55:18;;;;;;;;;26.33;20.67;;;;;;;;5099321;27;45343;-70
2022/04/19 13:57:43;;;;;;;;;28.33;23.33;;;;;;;;5100066;27;45336;-73
2022/04/19 14:00:09;;;;;;;;;27.33;23.67;;;;;;;;5098564;27;46236;-73
2022/04/19 14:02:34;;;;;;;;;24.33;23.67;;;;;;;;5099322;27;45317;-73
2022/04/19 14:05:00;;;;;;;;;24.67;23.00;;;;;;;;5099474;27;45239;-70
2022/04/19 14:07:25;;;;;;;;;29.00;24.33;;;;;;;;5099430;27;45229;-72
2022/04/19 14:09:50;;;;;;;;;25.33;23.33;;;;;;;;5099276;27;47558;-71
2022/04/19 14:12:16;;;;;;;;;28.33;23.67;;;;;;;;5099206;27;45422;-69
2022/04/19 14:14:42;;;;;;;;;20.67;19.33;;;;;;;;5099423;27;45406;-69
2022/04/19 14:17:07;;;;;;;;;23.67;21.67;;;;;;;;5099404;27;45370;-69
2022/04/19 14:19:33;;;;;;;;;27.67;22.67;;;;;;;;5080277;27;46534;-71
2022/04/19 14:21:58;;;;;;;;;21.00;18.00;;;;;;;;5098858;27;45484;-71
2022/04/19 14:24:24;;;;;;;;;19.33;16.33;;;;;;;;5099120;27;45318;-72
2022/04/19 14:26:50;;;;;;;;;26.00;24.00;;;;;;;;5099470;27;45365;-72
2022/04/19 14:34:42;;;;;;;;;24.33;23.67;;;;;;;;5099092;27;45405;-71
2022/04/19 14:37:08;;;;;;;;;27.00;21.33;;;;;;;;5098813;27;45509;-71
2022/04/19 14:39:33;;;;;;;;;29.33;21.33;;;;;;;;5098883;27;46171;-71
2022/04/19 14:41:59;;;;;;;;;25.33;23.67;;;;;;;;5098461;27;45378;-71
2022/04/19 14:44:24;;;;;;;;;27.00;23.00;;;;;;;;5098938;27;45358;-72
2022/04/19 14:46:49;;;;;;;;;31.67;23.33;;;;;;;;5098828;27;45392;-70
2022/04/19 14:49:14;;;;;;;;;22.67;21.67;;;;;;;;5098699;27;46251;-70
2022/04/19 14:54:23;;;;;;;;;26.00;22.00;;;;;;;;5098323;27;45412;-70
2022/04/19 14:56:48;;;;;;;;;34.00;30.00;;;;;;;;5098706;27;45299;-70
2022/04/19 14:59:14;;;;;;;;;27.33;24.00;;;;;;;;5098378;27;45443;-70
2022/04/19 15:01:39;;;;;;;;;33.33;29.33;;;;;;;;5098567;27;45343;-71
2022/04/19 15:04:04;;;;;;;;;32.33;30.67;;;;;;;;5098518;27;45472;-71
2022/04/19 15:06:29;;;;;;;;;35.00;29.33;;;;;;;;5098436;27;45401;-71
2022/04/19 15:08:55;;;;;;;;;32.33;29.33;;;;;;;;5097871;27;45541;-70
2022/04/19 15:11:21;;;;;;;;;36.00;32.67;;;;;;;;5098414;27;45402;-70